Time;durP1;ratioP1;P1;durP2;ratioP2;P2;SDS_P1;SDS_P2;PMS_P1;PMS_P2;Temp;Humidity;BMP_temperature;BMP_pressure;BME280_temperature;BME280_humidity;BME280_pressure;Samples;Min_cycle;Max_cycle;Signal;HPM_P1;HPM_P2
2021/06/11 00:00:12;;;;;;;4.75;3.20;;;;;;;24.00;26.18;101533.81;3606847;39;20058;-67
2021/06/11 00:02:43;;;;;;;4.72;2.97;;;;;;;23.95;26.34;101525.19;3608220;39;20289;-68
2021/06/11 00:05:11;;;;;;;4.43;2.70;;;;;;;23.96;26.27;101529.69;3602976;39;20415;-68
2021/06/11 00:07:39;;;;;;;5.10;3.40;;;;;;;23.94;26.82;101530.97;3604037;39;20043;-68
2021/06/11 00:10:10;;;;;;;5.57;2.78;;;;;;;23.94;26.37;101526.25;3602418;39;20416;-68
2021/06/11 00:12:39;;;;;;;4.43;2.55;;;;;;;23.90;26.73;101526.84;3607078;39;20044;-68
2021/06/11 00:15:11;;;;;;;6.68;3.33;;;;;;;23.92;27.06;101525.56;3604181;39;20120;-67
2021/06/11 00:17:39;;;;;;;5.22;3.20;;;;;;;23.89;26.52;101530.69;3601641;39;20058;-68
2021/06/11 00:20:09;;;;;;;4.70;3.38;;;;;;;23.89;26.84;101525.09;3608704;39;20123;-70
2021/06/11 00:22:38;;;;;;;6.07;3.40;;;;;;;23.88;27.13;101529.00;3610231;39;20136;-67
2021/06/11 00:25:07;;;;;;;4.35;2.85;;;;;;;23.86;27.21;101522.75;3610526;39;20056;-68
2021/06/11 00:27:34;;;;;;;4.68;3.22;;;;;;;23.84;27.34;101524.88;3611025;39;20062;-67
2021/06/11 00:30:03;;;;;;;4.35;2.80;;;;;;;23.84;27.39;101533.25;3606441;39;20096;-67
2021/06/11 00:32:34;;;;;;;4.03;2.95;;;;;;;23.83;27.63;101521.22;3601057;39;20083;-68
2021/06/11 00:35:02;;;;;;;5.43;3.58;;;;;;;23.80;27.42;101521.59;3609097;39;20050;-68
2021/06/11 00:37:30;;;;;;;4.75;3.15;;;;;;;23.77;27.62;101527.63;3607800;39;20351;-68
2021/06/11 00:39:58;;;;;;;5.25;3.25;;;;;;;23.76;27.32;101523.09;3583548;39;20055;-68
2021/06/11 00:42:27;;;;;;;4.95;3.38;;;;;;;23.75;27.31;101531.69;3601378;39;20059;-68
2021/06/11 00:44:55;;;;;;;4.68;2.85;;;;;;;23.75;28.09;101528.88;3594477;39;20092;-68
2021/06/11 00:47:22;;;;;;;4.50;2.70;;;;;;;23.72;28.10;101538.53;3608042;39;20062;-68
2021/06/11 00:49:52;;;;;;;3.88;2.90;;;;;;;23.72;27.85;101530.13;3597295;39;20065;-67
2021/06/11 00:52:20;;;;;;;5.65;2.70;;;;;;;23.68;27.98;101538.09;3598413;39;20080;-68
2021/06/11 00:54:47;;;;;;;6.82;3.65;;;;;;;23.66;28.45;101526.25;3607385;39;20087;-68
2021/06/11 00:57:15;;;;;;;5.22;3.38;;;;;;;23.65;28.16;101529.22;3595963;39;20052;-68
2021/06/11 00:59:43;;;;;;;4.32;2.97;;;;;;;23.63;28.22;101528.59;3604988;39;20436;-67
2021/06/11 01:02:12;;;;;;;4.55;3.05;;;;;;;23.61;28.41;101530.72;3607690;39;20083;-68
2021/06/11 01:04:40;;;;;;;5.65;3.78;;;;;;;23.58;28.52;101522.72;3607328;39;20308;-68
2021/06/11 01:07:09;;;;;;;5.78;3.15;;;;;;;23.58;28.30;101529.19;3607165;39;20308;-70
2021/06/11 01:09:41;;;;;;;5.18;3.00;;;;;;;23.57;28.59;101527.44;3607583;39;20353;-68
2021/06/11 01:12:10;;;;;;;5.05;2.88;;;;;;;23.51;28.53;101528.25;3595822;39;20517;-68
2021/06/11 01:14:39;;;;;;;5.50;2.88;;;;;;;23.52;28.62;101526.34;3608938;39;20054;-69
2021/06/11 01:17:07;;;;;;;4.60;3.05;;;;;;;23.50;28.56;101526.53;3598700;39;20068;-67
2021/06/11 01:19:40;;;;;;;3.97;3.00;;;;;;;23.51;28.40;101528.25;3607095;39;20091;-68
2021/06/11 01:22:13;;;;;;;4.13;2.85;;;;;;;23.49;28.31;101524.81;3607857;39;20073;-68
2021/06/11 01:24:52;;;;;;;4.20;2.83;;;;;;;23.50;28.38;101525.66;3609362;39;20397;-68
2021/06/11 01:27:22;;;;;;;4.65;3.10;;;;;;;23.47;28.40;101524.13;3608681;39;20051;-68
2021/06/11 01:29:52;;;;;;;5.85;2.90;;;;;;;23.44;28.30;101526.44;3599017;39;20047;-69
2021/06/11 01:32:21;;;;;;;4.32;2.97;;;;;;;23.44;28.85;101520.88;3602969;39;20396;-68
2021/06/11 01:34:51;;;;;;;4.68;3.17;;;;;;;23.43;28.53;101525.59;3608444;39;20048;-68
2021/06/11 01:37:21;;;;;;;5.32;3.17;;;;;;;23.41;28.72;101515.66;3611696;39;20483;-68
2021/06/11 01:39:52;;;;;;;4.22;3.33;;;;;;;23.41;28.93;101521.25;3617265;39;20377;-68
2021/06/11 01:42:21;;;;;;;4.72;3.10;;;;;;;23.36;29.17;101521.00;3599969;39;20057;-68
2021/06/11 01:44:52;;;;;;;4.95;2.90;;;;;;;23.36;28.65;101515.44;3604469;39;20062;-69
2021/06/11 01:47:22;;;;;;;5.13;3.30;;;;;;;23.32;28.53;101513.03;3602492;39;20080;-68
2021/06/11 01:49:51;;;;;;;4.32;3.00;;;;;;;23.30;28.71;101515.16;3615386;39;20046;-68
2021/06/11 01:52:20;;;;;;;4.93;3.22;;;;;;;23.29;28.86;101515.38;3602583;39;20344;-68
2021/06/11 01:54:48;;;;;;;4.43;3.20;;;;;;;23.27;28.78;101509.97;3612917;39;20079;-69
2021/06/11 01:57:16;;;;;;;4.97;2.97;;;;;;;23.26;28.97;101512.97;3610208;39;20039;-68
2021/06/11 01:59:46;;;;;;;5.93;3.33;;;;;;;23.24;28.71;101504.78;3600443;39;20124;-69
2021/06/11 02:02:15;;;;;;;5.40;3.15;;;;;;;23.21;28.76;101504.34;3603695;39;20051;-68
2021/06/11 02:04:43;;;;;;;4.60;2.90;;;;;;;23.19;28.89;101507.34;3607860;39;20055;-68
2021/06/11 02:07:11;;;;;;;5.05;3.10;;;;;;;23.17;29.16;101505.78;3606397;39;20067;-68
2021/06/11 02:09:42;;;;;;;4.78;3.42;;;;;;;23.16;29.01;101504.94;3606131;39;20047;-68
2021/06/11 02:12:11;;;;;;;4.82;3.08;;;;;;;23.14;29.52;101507.03;3608393;39;20053;-68
2021/06/11 02:14:39;;;;;;;4.80;3.33;;;;;;;23.12;28.96;101513.91;3599950;39;20318;-68
2021/06/11 02:17:09;;;;;;;5.38;3.28;;;;;;;23.12;29.14;101505.53;3603422;39;20039;-68
2021/06/11 02:19:39;;;;;;;5.43;3.20;;;;;;;23.09;29.61;101506.78;3602560;39;20044;-68
2021/06/11 02:22:09;;;;;;;5.05;3.38;;;;;;;23.09;29.20;101508.72;3607408;39;20043;-68
2021/06/11 02:24:38;;;;;;;4.35;2.88;;;;;;;23.05;29.54;101510.19;3592485;39;20065;-68
2021/06/11 02:27:08;;;;;;;4.65;3.10;;;;;;;23.03;29.13;101506.72;3608833;39;20047;-68
2021/06/11 02:29:36;;;;;;;5.82;3.25;;;;;;;23.00;29.67;101507.97;3598687;39;20070;-68
2021/06/11 02:32:05;;;;;;;4.18;3.03;;;;;;;22.99;29.41;101510.97;3601539;39;20054;-68
2021/06/11 02:34:35;;;;;;;5.22;3.13;;;;;;;22.97;29.17;101505.59;3612386;39;20091;-69
2021/06/11 02:37:03;;;;;;;4.55;3.03;;;;;;;22.94;29.36;101508.78;3607771;39;20052;-68
2021/06/11 02:39:32;;;;;;;4.65;3.13;;;;;;;22.91;29.61;101500.81;3608377;39;20047;-68
2021/06/11 02:42:04;;;;;;;5.00;3.42;;;;;;;22.91;29.17;101510.03;3605873;39;20052;-68
2021/06/11 02:44:34;;;;;;;4.93;3.17;;;;;;;22.86;29.65;101508.91;3608046;39;20381;-68
2021/06/11 02:47:08;;;;;;;5.68;3.58;;;;;;;22.86;29.50;101508.91;3605553;39;20062;-68
2021/06/11 02:49:45;;;;;;;5.15;3.63;;;;;;;22.83;29.95;101512.06;3610711;39;20043;-68
2021/06/11 02:52:14;;;;;;;5.28;3.35;;;;;;;22.78;29.98;101518.25;3596943;39;20297;-68
2021/06/11 02:54:45;;;;;;;4.82;3.33;;;;;;;22.79;30.04;101521.91;3614000;39;20389;-68
2021/06/11 02:57:22;;;;;;;5.90;3.72;;;;;;;22.78;30.40;101522.94;3607105;39;20051;-68
2021/06/11 02:59:54;;;;;;;5.35;3.47;;;;;;;22.73;29.84;101522.66;3608092;39;20043;-68
2021/06/11 03:02:27;;;;;;;4.80;3.15;;;;;;;22.69;29.97;101516.63;3602979;39;20070;-68
2021/06/11 03:04:57;;;;;;;5.20;3.40;;;;;;;22.68;30.11;101520.47;3614404;39;20374;-68
2021/06/11 03:07:28;;;;;;;5.05;3.47;;;;;;;22.65;29.96;101520.84;3588276;39;20063;-68
2021/06/11 03:09:58;;;;;;;5.80;3.85;;;;;;;22.63;30.61;101511.84;3609088;39;20483;-68
2021/06/11 03:12:27;;;;;;;5.25;3.80;;;;;;;22.59;30.55;101518.84;3597737;39;20133;-68
2021/06/11 03:14:55;;;;;;;5.03;3.58;;;;;;;22.57;30.56;101513.47;3605867;39;20423;-69
2021/06/11 03:17:27;;;;;;;4.82;3.53;;;;;;;22.58;30.55;101519.91;3608310;39;20136;-68
2021/06/11 03:20:02;;;;;;;6.18;3.50;;;;;;;22.54;30.81;101519.44;3602476;39;20101;-68
2021/06/11 03:22:33;;;;;;;5.50;3.42;;;;;;;22.53;30.83;101523.31;3590643;40;20394;-68
2021/06/11 03:25:07;;;;;;;4.75;3.30;;;;;;;22.51;31.12;101510.59;3605126;39;20397;-68
2021/06/11 03:27:41;;;;;;;4.60;3.40;;;;;;;22.51;31.23;101510.59;3598496;39;20054;-68
2021/06/11 03:30:11;;;;;;;5.35;3.42;;;;;;;22.48;31.34;101509.06;3608126;39;20055;-68
2021/06/11 03:32:44;;;;;;;4.43;3.20;;;;;;;22.47;30.92;101515.72;3605507;39;20059;-68
2021/06/11 03:35:20;;;;;;;5.53;3.35;;;;;;;22.47;31.70;101515.72;3606590;39;20051;-68
2021/06/11 03:37:51;;;;;;;4.45;3.22;;;;;;;22.45;31.31;101514.19;3597595;39;20098;-67
2021/06/11 03:40:24;;;;;;;5.57;3.42;;;;;;;22.43;31.19;101519.94;3610957;39;20146;-67
2021/06/11 03:42:54;;;;;;;5.68;3.30;;;;;;;22.43;31.37;101519.94;3598989;39;20052;-67
2021/06/11 03:45:23;;;;;;;5.82;3.72;;;;;;;22.42;31.40;101520.13;3603685;39;20036;-68
2021/06/11 03:47:53;;;;;;;5.55;3.45;;;;;;;22.40;31.61;101523.09;3597608;39;20076;-68
2021/06/11 03:50:25;;;;;;;5.25;3.53;;;;;;;22.40;32.10;101514.75;3607502;39;20438;-67
2021/06/11 03:52:56;;;;;;;4.72;3.35;;;;;;;22.37;31.85;101520.72;3595316;40;20056;-68
2021/06/11 03:55:27;;;;;;;6.10;3.67;;;;;;;22.35;31.90;101522.84;3601424;39;20084;-68
2021/06/11 03:57:59;;;;;;;6.20;3.63;;;;;;;22.34;32.45;101526.69;3603939;39;20048;-69
2021/06/11 04:00:29;;;;;;;;;;;;;;;22.01;31.97;101534.53;3609926;39;20044;-68
2021/06/11 04:02:57;;;;;;;5.13;3.65;;;;;;;22.24;31.89;101533.59;3591350;39;20212;-68
2021/06/11 04:05:30;;;;;;;5.63;3.53;;;;;;;22.24;31.95;101540.03;3610837;39;20060;-69
2021/06/11 04:07:58;;;;;;;6.75;3.70;;;;;;;22.22;32.54;101535.75;3594300;39;20084;-68
2021/06/11 04:10:31;;;;;;;5.70;3.55;;;;;;;22.22;32.93;101536.59;3597618;39;20069;-68
2021/06/11 04:13:02;;;;;;;;;;;;;;;21.91;32.77;101538.66;3609060;39;20111;-67
2021/06/11 04:15:34;;;;;;;5.93;3.55;;;;;;;22.14;32.92;101531.97;3608261;39;19932;-67
2021/06/11 04:18:06;;;;;;;7.63;3.97;;;;;;;22.15;32.68;101542.03;3601634;39;20060;-68
2021/06/11 04:20:37;;;;;;;5.25;3.88;;;;;;;22.13;32.44;101533.00;3607486;39;20084;-68
2021/06/11 04:23:06;;;;;;;4.43;3.47;;;;;;;22.13;32.46;101537.72;3603274;39;20083;-68
2021/06/11 04:25:38;;;;;;;5.10;3.53;;;;;;;22.13;32.74;101530.22;3606728;39;20056;-68
2021/06/11 04:28:09;;;;;;;6.55;4.53;;;;;;;22.13;33.37;101537.72;3603737;39;20172;-68
2021/06/11 04:30:37;;;;;;;6.50;4.50;;;;;;;22.11;33.44;101535.13;3604475;39;20048;-68
2021/06/11 04:33:19;;;;;;;5.45;3.70;;;;;;;22.12;33.78;101539.66;3606177;39;20055;-68
2021/06/11 04:35:49;;;;;;;6.17;4.30;;;;;;;22.10;33.25;101535.31;3601709;39;20044;-68
2021/06/11 04:38:17;;;;;;;7.07;4.10;;;;;;;22.09;32.98;101536.38;3605309;39;20286;-68
2021/06/11 04:40:45;;;;;;;6.03;4.07;;;;;;;22.08;33.27;101532.72;3608842;39;20075;-68
2021/06/11 04:43:13;;;;;;;7.57;4.47;;;;;;;22.08;33.23;101532.72;3610353;39;20403;-69
2021/06/11 04:45:41;;;;;;;7.88;4.80;;;;;;;22.07;33.33;101522.63;3611896;39;20061;-68
2021/06/11 04:48:09;;;;;;;6.50;4.40;;;;;;;22.08;33.71;101523.47;3611262;39;20051;-68
2021/06/11 04:50:38;;;;;;;6.85;4.25;;;;;;;22.07;33.46;101517.03;3610959;39;20105;-68
2021/06/11 04:53:09;;;;;;;7.72;4.55;;;;;;;22.09;33.44;101514.06;3609006;39;20055;-68
2021/06/11 04:55:39;;;;;;;7.15;3.97;;;;;;;22.07;33.56;101514.25;3606619;39;20065;-68
2021/06/11 04:58:08;;;;;;;5.85;4.22;;;;;;;22.08;33.88;101512.34;3608883;39;20392;-68
2021/06/11 05:00:36;;;;;;;6.28;4.20;;;;;;;22.09;33.56;101514.94;3610326;39;20059;-68
2021/06/11 05:03:04;;;;;;;6.93;4.75;;;;;;;22.09;33.85;101514.94;3602344;39;20116;-68
2021/06/11 05:05:32;;;;;;;5.85;4.15;;;;;;;22.12;33.80;101511.78;3611599;39;20296;-68
2021/06/11 05:08:00;;;;;;;5.82;4.47;;;;;;;22.14;34.52;101514.38;3601651;39;20420;-68
2021/06/11 05:10:29;;;;;;;7.38;4.15;;;;;;;22.18;34.14;101515.72;3604483;39;20059;-69
2021/06/11 05:12:57;;;;;;;8.35;4.60;;;;;;;22.19;34.46;101506.28;3601418;39;20056;-68
2021/06/11 05:15:25;;;;;;;7.43;4.43;;;;;;;22.23;34.13;101507.69;3610387;39;20063;-69
2021/06/11 05:17:52;;;;;;;8.25;5.15;;;;;;;22.27;34.56;101505.34;3600899;39;20125;-68
2021/06/11 05:20:21;;;;;;;7.35;4.97;;;;;;;22.32;34.65;101500.91;3611036;39;20035;-68
2021/06/11 05:22:49;;;;;;;8.35;5.38;;;;;;;22.39;34.34;101501.03;3597915;39;20331;-69
2021/06/11 05:25:17;;;;;;;8.48;5.07;;;;;;;22.44;34.13;101502.16;3609283;39;20393;-68
2021/06/11 05:27:46;;;;;;;6.75;4.60;;;;;;;22.53;34.47;101505.69;3604933;39;20043;-69
2021/06/11 05:30:34;;;;;;;7.28;4.93;;;;;;;22.62;34.78;101500.88;3606685;39;20043;-68
2021/06/11 05:33:17;;;;;;;6.60;4.70;;;;;;;22.64;34.77;101508.00;3600385;39;20062;-68
2021/06/11 05:35:45;;;;;;;6.93;4.78;;;;;;;22.74;34.54;101507.66;3606592;39;20036;-69
2021/06/11 05:38:14;;;;;;;6.07;4.35;;;;;;;22.81;34.28;101506.66;3610540;39;20036;-68
2021/06/11 05:40:42;;;;;;;5.78;4.28;;;;;;;22.91;34.38;101504.47;3612073;39;20035;-68
2021/06/11 05:43:11;;;;;;;7.20;4.88;;;;;;;23.00;34.42;101516.34;3607635;39;20058;-68
2021/06/11 05:45:39;;;;;;;7.05;5.07;;;;;;;23.05;34.99;101513.84;3596745;39;20044;-68
2021/06/11 05:48:09;;;;;;;7.53;5.05;;;;;;;23.13;34.52;101522.09;3608707;39;20058;-69
2021/06/11 05:50:37;;;;;;;6.97;4.88;;;;;;;23.18;34.32;101518.69;3606109;39;20048;-73
2021/06/11 05:53:05;;;;;;;6.55;4.90;;;;;;;23.26;34.74;101525.00;3608621;39;20039;-69
2021/06/11 05:55:33;;;;;;;7.40;4.85;;;;;;;23.32;34.56;101524.19;3598419;39;20048;-69
2021/06/11 05:58:01;;;;;;;7.13;5.10;;;;;;;23.38;34.82;101522.53;3606970;39;20420;-69
2021/06/11 06:00:30;;;;;;;6.20;4.50;;;;;;;23.45;34.27;101529.06;3607425;39;20054;-68
2021/06/11 06:02:58;;;;;;;7.78;5.25;;;;;;;23.49;34.40;101533.19;3609034;39;20051;-68
2021/06/11 06:05:26;;;;;;;7.72;5.15;;;;;;;23.54;34.08;101530.66;3603044;39;20261;-69
2021/06/11 06:07:54;;;;;;;6.60;4.88;;;;;;;23.60;34.42;101529.00;3605398;39;20042;-69
2021/06/11 06:10:23;;;;;;;6.88;4.63;;;;;;;23.63;34.40;101521.03;3605190;39;20064;-69
2021/06/11 06:12:51;;;;;;;7.07;5.05;;;;;;;23.67;34.17;101530.75;3603625;39;20080;-71
2021/06/11 06:15:18;;;;;;;8.35;4.93;;;;;;;23.73;34.32;101522.63;3605542;39;20088;-71
2021/06/11 06:17:47;;;;;;;7.80;5.05;;;;;;;23.79;34.10;101527.44;3593577;39;20055;-70
2021/06/11 06:20:16;;;;;;;8.98;5.32;;;;;;;23.81;34.11;101525.25;3602819;39;20058;-70
2021/06/11 06:22:43;;;;;;;9.10;5.57;;;;;;;23.85;34.36;101521.88;3608184;39;20324;-70
2021/06/11 06:25:13;;;;;;;7.53;5.43;;;;;;;23.91;34.16;101526.66;3605919;39;20153;-70
2021/06/11 06:27:43;;;;;;;6.40;5.13;;;;;;;23.94;34.31;101531.84;3607416;39;20048;-70
2021/06/11 06:30:15;;;;;;;7.63;5.00;;;;;;;23.99;34.02;101529.28;3604536;39;20321;-70
2021/06/11 06:32:43;;;;;;;7.13;4.63;;;;;;;23.99;33.87;101531.22;3607376;39;20166;-70
2021/06/11 06:35:17;;;;;;;7.03;5.13;;;;;;;24.04;34.33;101535.09;3596538;39;20128;-70
2021/06/11 06:37:45;;;;;;;9.30;5.53;;;;;;;24.09;34.20;101539.25;3606936;39;20302;-70
2021/06/11 06:40:14;;;;;;;8.85;5.40;;;;;;;24.13;34.38;101538.63;3595042;39;20809;-70
2021/06/11 06:42:42;;;;;;;8.98;5.90;;;;;;;24.17;34.28;101541.91;3607857;39;20048;-70
2021/06/11 06:45:13;;;;;;;8.43;5.82;;;;;;;24.22;33.94;101550.50;3606232;39;20059;-70
2021/06/11 06:47:43;;;;;;;8.10;5.78;;;;;;;24.25;34.20;101547.31;3599892;39;20058;-68
2021/06/11 06:50:13;;;;;;;8.65;5.80;;;;;;;24.32;33.94;101545.41;3609302;39;20128;-68
2021/06/11 06:52:42;;;;;;;8.23;5.32;;;;;;;24.37;34.04;101549.31;3605875;39;20051;-71
2021/06/11 06:55:11;;;;;;;8.88;5.63;;;;;;;24.41;34.14;101550.63;3596016;39;20416;-69
2021/06/11 06:57:39;;;;;;;8.93;5.95;;;;;;;24.45;33.91;101543.53;3604829;39;20051;-70
2021/06/11 07:00:09;;;;;;;8.60;6.05;;;;;;;24.54;34.11;101543.41;3604045;39;20125;-71
2021/06/11 07:02:37;;;;;;;8.25;5.85;;;;;;;24.58;33.73;101548.34;3612585;39;21401;-71
2021/06/11 07:05:07;;;;;;;11.20;6.63;;;;;;;24.65;33.52;101540.88;3607122;39;20341;-71
2021/06/11 07:07:35;;;;;;;8.90;5.95;;;;;;;24.70;33.95;101543.91;3603275;39;20117;-71
2021/06/11 07:10:18;;;;;;;8.93;5.72;;;;;;;24.79;33.61;101545.44;3607266;39;20074;-70
2021/06/11 07:12:45;;;;;;;8.90;5.80;;;;;;;24.80;33.66;101543.50;3594876;40;20083;-69
2021/06/11 07:15:14;;;;;;;8.55;6.00;;;;;;;24.90;33.55;101540.31;3601338;39;20060;-69
2021/06/11 07:17:42;;;;;;;8.77;5.60;;;;;;;24.96;33.33;101550.66;3598198;39;20505;-70
2021/06/11 07:20:11;;;;;;;8.00;5.70;;;;;;;25.04;33.33;101547.66;3603912;39;20417;-69
2021/06/11 07:22:40;;;;;;;9.20;6.00;;;;;;;25.07;33.09;101536.91;3600795;39;20064;-69
2021/06/11 07:25:10;;;;;;;8.10;5.72;;;;;;;25.16;32.95;101544.06;3596331;39;20405;-68
2021/06/11 07:27:39;;;;;;;9.10;5.30;;;;;;;25.20;33.07;101536.94;3603900;39;20113;-69
2021/06/11 07:30:10;;;;;;;5.97;4.68;;;;;;;25.29;33.13;101539.56;3603354;39;20052;-69
2021/06/11 07:32:42;;;;;;;6.47;4.78;;;;;;;25.32;32.97;101536.34;3601807;39;20079;-69
2021/06/11 07:35:11;;;;;;;7.65;5.75;;;;;;;25.41;33.08;101538.72;3606306;39;20043;-69
2021/06/11 07:37:41;;;;;;;9.52;5.15;;;;;;;25.48;32.80;101541.53;3601151;39;20028;-69
2021/06/11 07:40:14;;;;;;;7.25;5.38;;;;;;;25.56;32.41;101542.19;3607664;39;20040;-71
2021/06/11 07:42:42;;;;;;;6.80;4.87;;;;;;;25.58;32.47;101541.97;3602692;39;20063;-70
2021/06/11 07:45:12;;;;;;;8.48;5.45;;;;;;;25.68;32.56;101553.63;3603273;39;20052;-70
2021/06/11 07:47:40;;;;;;;7.68;4.65;;;;;;;25.73;32.70;101545.41;3605896;39;20392;-71
2021/06/11 07:50:09;;;;;;;6.85;5.28;;;;;;;25.82;32.22;101548.91;3600358;39;20039;-69
2021/06/11 07:52:44;;;;;;;9.32;6.15;;;;;;;25.91;31.61;101558.81;3593904;39;20047;-70
2021/06/11 07:55:14;;;;;;;7.32;5.40;;;;;;;25.96;31.96;101550.59;3606094;39;20092;-70
2021/06/11 07:57:42;;;;;;;7.07;4.82;;;;;;;25.99;32.05;101547.38;3596042;39;20043;-71
2021/06/11 08:00:11;;;;;;;6.50;4.60;;;;;;;26.06;31.94;101551.03;3607655;39;20047;-69
2021/06/11 08:02:54;;;;;;;7.75;4.75;;;;;;;26.13;31.85;101545.41;3604069;39;20092;-70
2021/06/11 08:05:47;;;;;;;7.95;5.10;;;;;;;26.17;31.58;101552.31;3604255;39;20039;-69
2021/06/11 08:08:15;;;;;;;6.97;4.70;;;;;;;26.21;31.75;101551.63;3606700;39;20035;-71
2021/06/11 08:10:44;;;;;;;6.35;4.32;;;;;;;26.33;31.55;101565.84;3607503;39;20075;-71
2021/06/11 08:13:12;;;;;;;6.28;3.83;;;;;;;26.37;31.29;101564.34;3601999;39;20047;-71
2021/06/11 08:15:40;;;;;;;6.05;4.40;;;;;;;26.44;31.19;101567.13;3605483;39;20048;-71
2021/06/11 08:18:08;;;;;;;6.82;4.50;;;;;;;26.49;31.12;101562.59;3592338;40;20110;-69
2021/06/11 08:20:37;;;;;;;5.80;3.75;;;;;;;26.56;30.98;101569.03;3598850;39;20056;-69
2021/06/11 08:23:06;;;;;;;6.88;4.55;;;;;;;26.61;30.77;101566.44;3608400;39;20074;-70
2021/06/11 08:25:34;;;;;;;6.60;4.38;;;;;;;26.66;30.64;101572.25;3608509;39;20035;-69
2021/06/11 08:28:04;;;;;;;5.03;3.60;;;;;;;26.73;30.52;101568.56;3608284;39;20076;-68
2021/06/11 08:30:32;;;;;;;6.13;3.92;;;;;;;26.76;30.57;101570.91;3607189;39;20124;-69
2021/06/11 08:33:01;;;;;;;5.13;3.33;;;;;;;26.82;30.46;101573.69;3604921;39;20058;-69
2021/06/11 08:35:29;;;;;;;4.60;2.92;;;;;;;26.87;30.48;101573.00;3606280;39;21431;-70
2021/06/11 08:37:57;;;;;;;4.40;3.20;;;;;;;26.91;30.27;101579.91;3607305;39;20113;-70
2021/06/11 08:40:27;;;;;;;4.50;3.13;;;;;;;26.97;30.32;101577.09;3597745;39;20043;-69
2021/06/11 08:42:55;;;;;;;5.15;3.67;;;;;;;27.00;30.15;101576.66;3611694;39;20055;-70
2021/06/11 08:45:25;;;;;;;5.60;3.55;;;;;;;27.08;30.18;101581.16;3599017;39;20151;-71
2021/06/11 08:47:54;;;;;;;5.47;3.63;;;;;;;27.13;29.95;101572.03;3612654;39;20184;-70
2021/06/11 08:50:26;;;;;;;5.03;3.75;;;;;;;27.18;30.10;101578.69;3606414;39;20297;-69
2021/06/11 08:52:54;;;;;;;;;;;;;;;26.91;30.66;101575.19;3609534;39;20058;-69
2021/06/11 08:55:23;;;;;;;4.38;3.20;;;;;;;27.24;30.19;101579.75;3609702;39;20012;-69
2021/06/11 08:57:51;;;;;;;6.10;3.97;;;;;;;27.32;29.74;101577.53;3610932;39;20088;-71
2021/06/11 09:00:20;;;;;;;4.53;3.05;;;;;;;27.39;30.03;101577.50;3604748;39;20115;-70
2021/06/11 09:03:10;;;;;;;5.63;4.05;;;;;;;27.43;29.57;101576.81;3600437;39;20125;-69
2021/06/11 09:05:40;;;;;;;4.28;2.80;;;;;;;27.49;29.84;101577.91;3612735;39;20416;-69
2021/06/11 09:08:13;;;;;;;4.38;3.05;;;;;;;27.56;29.63;101581.50;3609764;39;20047;-70
2021/06/11 09:10:46;;;;;;;6.15;4.00;;;;;;;27.61;29.47;101586.44;3605745;39;20040;-70
2021/06/11 09:13:28;;;;;;;6.32;4.00;;;;;;;27.67;29.29;101582.69;3608761;39;20129;-69
2021/06/11 09:16:07;;;;;;;5.82;4.10;;;;;;;27.70;29.45;101571.88;3609524;39;20054;-70
2021/06/11 09:18:49;;;;;;;4.78;3.30;;;;;;;27.78;28.76;101582.84;3603470;39;20052;-70
2021/06/11 09:21:38;;;;;;;5.68;3.28;;;;;;;27.80;29.10;101582.63;3607389;39;20047;-70
2021/06/11 09:24:23;;;;;;;5.45;4.15;;;;;;;27.88;29.08;101585.13;3604034;39;20427;-70
2021/06/11 09:27:08;;;;;;;5.13;3.65;;;;;;;27.93;28.79;101576.84;3605501;39;20066;-68
2021/06/11 09:29:38;;;;;;;5.57;3.80;;;;;;;27.97;28.89;101578.13;3606369;39;20092;-69
2021/06/11 09:32:18;;;;;;;6.13;4.35;;;;;;;28.06;28.78;101578.75;3608560;39;20083;-71
2021/06/11 09:34:50;;;;;;;5.03;3.67;;;;;;;28.07;28.51;101577.66;3596094;40;20383;-70
2021/06/11 09:37:19;;;;;;;5.18;4.05;;;;;;;28.11;28.77;101579.75;3595487;39;20048;-69
2021/06/11 09:39:55;;;;;;;5.43;4.05;;;;;;;28.16;28.60;101579.06;3608740;39;20051;-69
2021/06/11 09:42:24;;;;;;;5.45;3.92;;;;;;;28.18;28.78;101579.69;3607307;39;20054;-69
2021/06/11 09:44:57;;;;;;;4.45;3.20;;;;;;;28.25;28.67;101571.16;3613157;39;20063;-69
2021/06/11 09:47:37;;;;;;;5.60;3.35;;;;;;;28.28;28.10;101573.53;3607667;39;20059;-70
2021/06/11 09:50:15;;;;;;;4.95;3.45;;;;;;;28.30;28.20;101571.34;3589829;39;20044;-69
2021/06/11 09:52:57;;;;;;;5.45;3.78;;;;;;;28.35;28.38;101571.50;3608605;39;20064;-67
2021/06/11 09:55:28;;;;;;;4.43;3.13;;;;;;;28.37;28.73;101564.53;3608588;39;20056;-68
2021/06/11 09:58:18;;;;;;;5.40;3.88;;;;;;;28.38;28.01;101573.84;3609549;39;20055;-69
2021/06/11 10:00:54;;;;;;;4.95;3.40;;;;;;;28.43;28.05;101574.84;3593634;39;20036;-69
2021/06/11 10:03:25;;;;;;;4.55;3.35;;;;;;;28.45;27.92;101569.88;3609041;39;20445;-67
2021/06/11 10:05:56;;;;;;;5.30;3.97;;;;;;;28.49;27.75;101564.63;3605694;39;20040;-69
2021/06/11 10:08:26;;;;;;;6.00;3.20;;;;;;;28.45;28.08;101567.06;3599775;39;20054;-69
2021/06/11 10:10:57;;;;;;;4.80;3.60;;;;;;;28.51;27.68;101559.66;3607414;39;20284;-69
2021/06/11 10:13:29;;;;;;;4.85;3.10;;;;;;;28.50;27.85;101563.53;3598907;39;20066;-69
2021/06/11 10:15:58;;;;;;;4.20;2.97;;;;;;;28.52;28.13;101567.00;3601911;39;20426;-69
2021/06/11 10:18:26;;;;;;;5.30;3.20;;;;;;;28.51;27.88;101563.31;3608720;39;20048;-70
2021/06/11 10:20:57;;;;;;;4.30;3.03;;;;;;;28.53;27.42;101565.91;3606184;39;20340;-70
2021/06/11 10:23:27;;;;;;;5.50;3.13;;;;;;;28.51;27.74;101560.50;3607056;39;20072;-70
2021/06/11 10:26:00;;;;;;;6.72;3.40;;;;;;;28.51;27.86;101556.84;3605475;39;20050;-70
2021/06/11 10:28:30;;;;;;;6.30;3.85;;;;;;;28.52;27.41;101565.03;3606303;39;20044;-70
2021/06/11 10:31:00;;;;;;;4.60;3.30;;;;;;;28.51;27.44;101560.50;3607203;39;20412;-68
2021/06/11 10:33:53;;;;;;;4.03;3.05;;;;;;;28.48;27.22;101555.34;3605389;39;20068;-70
2021/06/11 10:36:38;;;;;;;4.93;3.28;;;;;;;28.48;27.39;101557.28;3592752;39;20056;-69
2021/06/11 10:39:24;;;;;;;5.47;2.55;;;;;;;28.47;27.39;101564.00;3605373;39;20063;-71
2021/06/11 10:42:05;;;;;;;5.75;2.30;;;;;;;28.47;27.22;101559.25;3605064;39;20036;-71
2021/06/11 10:44:38;;;;;;;3.85;2.83;;;;;;;28.45;27.39;101549.31;3608789;39;20059;-69
2021/06/11 10:47:25;;;;;;;4.60;2.80;;;;;;;28.41;27.40;101548.06;3606806;39;20077;-69
2021/06/11 10:50:13;;;;;;;4.25;2.67;;;;;;;28.41;27.33;101548.91;3602937;39;20044;-72
2021/06/11 10:52:50;;;;;;;5.53;2.83;;;;;;;28.43;27.07;101541.09;3605049;39;20096;-70
2021/06/11 10:55:49;;;;;;;3.03;2.30;;;;;;;28.39;27.37;101541.81;3604717;39;20148;-69
2021/06/11 10:58:25;;;;;;;3.35;2.15;;;;;;;28.43;27.27;101532.66;3607342;39;20083;-70
2021/06/11 11:00:54;;;;;;;4.05;2.55;;;;;;;28.43;27.33;101537.41;3597876;39;20289;-70
2021/06/11 11:03:32;;;;;;;4.63;2.50;;;;;;;28.47;27.34;101531.09;3593786;39;20301;-71
2021/06/11 11:06:33;;;;;;;4.70;2.30;;;;;;;28.46;27.32;101529.38;3603426;39;20159;-70
2021/06/11 11:09:06;;;;;;;4.65;2.65;;;;;;;28.50;26.94;101524.97;3606300;39;20456;-70
2021/06/11 11:11:37;;;;;;;3.60;2.30;;;;;;;28.53;26.94;101527.38;3610981;39;20061;-70
2021/06/11 11:14:06;;;;;;;4.18;2.28;;;;;;;28.52;27.21;101522.81;3607652;39;20087;-69
2021/06/11 11:16:37;;;;;;;4.40;2.40;;;;;;;28.54;27.21;101523.47;3606702;39;20079;-69
2021/06/11 11:19:07;;;;;;;3.58;2.20;;;;;;;28.55;26.99;101515.88;3598012;39;20083;-70
2021/06/11 11:21:38;;;;;;;3.22;2.20;;;;;;;28.60;26.77;101529.22;3593050;39;20063;-69
2021/06/11 11:24:12;;;;;;;4.30;2.67;;;;;;;28.61;26.92;101517.75;3602324;39;20133;-69
2021/06/11 11:26:46;;;;;;;4.32;2.35;;;;;;;28.64;27.00;101522.03;3612273;39;20509;-69
2021/06/11 11:29:15;;;;;;;4.18;2.38;;;;;;;28.63;26.93;101518.38;3597343;39;20055;-69
2021/06/11 11:31:46;;;;;;;4.10;2.40;;;;;;;28.65;26.93;101520.94;3611862;39;20409;-69
2021/06/11 11:34:14;;;;;;;3.15;2.17;;;;;;;28.64;27.19;101514.47;3607397;39;20832;-68
2021/06/11 11:36:43;;;;;;;3.92;2.30;;;;;;;28.67;27.01;101511.16;3603339;39;20047;-69
2021/06/11 11:39:13;;;;;;;2.95;1.98;;;;;;;28.72;26.78;101511.31;3606716;39;20058;-69
2021/06/11 11:41:41;;;;;;;3.85;2.63;;;;;;;28.74;26.61;101516.72;3608078;39;20059;-70
2021/06/11 11:44:09;;;;;;;3.58;2.40;;;;;;;28.77;26.99;101516.22;3612394;39;20398;-69